createdAt,value
2022-08-20T00:01:49.059Z,7.97
2022-08-20T00:03:53.301Z,7.93
2022-08-20T00:06:02.518Z,8.70
2022-08-20T00:08:10.015Z,7.30
2022-08-20T00:10:16.456Z,7.43
2022-08-20T00:12:21.664Z,7.63
2022-08-20T00:14:38.534Z,7.00
2022-08-20T00:16:46.205Z,6.90
2022-08-20T00:18:50.927Z,7.20
2022-08-20T00:20:58.045Z,7.47
2022-08-20T00:23:02.100Z,6.50
2022-08-20T00:25:08.057Z,6.03
2022-08-20T00:27:12.281Z,6.67
2022-08-20T00:29:16.632Z,7.90
2022-08-20T00:31:27.807Z,7.73
2022-08-20T00:33:33.510Z,8.03
2022-08-20T00:35:42.153Z,6.50
2022-08-20T00:37:45.989Z,7.80
2022-08-20T00:39:49.527Z,6.20
2022-08-20T00:41:53.511Z,5.90
2022-08-20T00:44:12.205Z,6.87
2022-08-20T00:46:19.875Z,6.83
2022-08-20T00:48:23.525Z,6.17
2022-08-20T00:50:37.421Z,7.00
2022-08-20T00:52:42.894Z,6.50
2022-08-20T00:54:56.791Z,6.10
2022-08-20T00:57:06.308Z,6.60
2022-08-20T00:59:16.853Z,5.60
2022-08-20T01:01:20.941Z,6.30
2022-08-20T01:03:24.754Z,6.00
2022-08-20T01:05:30.194Z,6.20
2022-08-20T01:07:35.067Z,5.87
2022-08-20T01:09:57.767Z,5.60
2022-08-20T01:12:06.951Z,7.00
2022-08-20T01:14:46.425Z,6.30
2022-08-20T01:16:51.435Z,5.70
2022-08-20T01:18:59.706Z,5.30
2022-08-20T01:21:07.574Z,5.43
2022-08-20T01:23:27.621Z,4.90
2022-08-20T01:25:50.133Z,6.63
2022-08-20T01:27:58.199Z,5.47
2022-08-20T01:30:06.852Z,5.10
2022-08-20T01:32:10.904Z,6.10
2022-08-20T01:34:17.614Z,5.50
2022-08-20T01:36:26.857Z,5.40
2022-08-20T01:38:31.442Z,5.83
2022-08-20T01:41:12.388Z,6.07
2022-08-20T01:43:18.858Z,5.23
2022-08-20T01:45:27.886Z,5.23
2022-08-20T01:47:38.435Z,6.70
2022-08-20T01:49:46.192Z,6.40
2022-08-20T01:51:52.019Z,5.00
2022-08-20T01:53:57.869Z,6.37
2022-08-20T01:56:03.960Z,6.20
2022-08-20T01:58:10.203Z,5.00
2022-08-20T02:00:19.943Z,5.47
2022-08-20T02:02:24.927Z,4.90
2022-08-20T02:04:28.598Z,4.57
2022-08-20T02:06:37.894Z,5.20
2022-08-20T02:08:42.938Z,4.60
2022-08-20T02:10:47.405Z,4.83
2022-08-20T02:12:51.217Z,5.57
2022-08-20T02:14:57.878Z,5.57
2022-08-20T02:17:03.365Z,5.27
2022-08-20T02:19:11.939Z,5.20
2022-08-20T02:21:16.858Z,4.70
2022-08-20T02:23:21.037Z,5.53
2022-08-20T02:25:26.544Z,5.23
2022-08-20T02:27:30.450Z,4.83
2022-08-20T02:29:37.447Z,6.13
2022-08-20T02:32:32.124Z,4.90
2022-08-20T02:34:22.160Z,5.87
2022-08-20T02:36:27.800Z,5.80
2022-08-20T02:38:31.398Z,5.43
2022-08-20T02:40:36.636Z,5.20
2022-08-20T02:42:42.198Z,6.30
2022-08-20T02:44:46.608Z,5.00
2022-08-20T02:46:50.679Z,5.00
2022-08-20T02:48:54.293Z,5.07
2022-08-20T02:51:06.793Z,7.17
2022-08-20T02:53:10.777Z,6.17
2022-08-20T02:55:27.480Z,6.47
2022-08-20T02:57:32.162Z,5.50
2022-08-20T02:59:36.147Z,5.10
2022-08-20T03:01:39.802Z,5.10
2022-08-20T03:03:44.746Z,4.87
2022-08-20T03:05:48.332Z,4.90
2022-08-20T03:07:57.045Z,5.17
2022-08-20T03:10:01.674Z,5.00
2022-08-20T03:12:06.737Z,4.40
2022-08-20T03:14:10.843Z,4.77
2022-08-20T03:16:15.377Z,5.20
2022-08-20T03:18:20.342Z,5.10
2022-08-20T03:20:24.273Z,4.63
2022-08-20T03:22:28.666Z,5.00
2022-08-20T03:24:33.712Z,4.53
2022-08-20T03:26:40.349Z,4.80
2022-08-20T03:28:45.143Z,4.00
2022-08-20T03:30:53.441Z,4.93
2022-08-20T03:32:58.472Z,6.07
2022-08-20T03:35:02.156Z,5.30
2022-08-20T03:37:11.798Z,5.23
2022-08-20T03:39:16.288Z,4.70
2022-08-20T03:41:21.467Z,4.27
2022-08-20T03:43:25.284Z,5.67
2022-08-20T03:45:30.234Z,5.00
2022-08-20T03:47:33.906Z,5.03
2022-08-20T03:49:39.604Z,5.70
2022-08-20T03:51:57.839Z,5.20
2022-08-20T03:54:04.014Z,5.03
2022-08-20T03:56:10.501Z,4.93
2022-08-20T03:58:17.577Z,5.33
2022-08-20T04:00:23.456Z,5.17
2022-08-20T04:02:28.653Z,4.90
2022-08-20T04:04:32.185Z,5.00
2022-08-20T04:06:36.420Z,6.00
2022-08-20T04:08:41.787Z,4.40
2022-08-20T04:10:48.271Z,6.33
2022-08-20T04:12:52.946Z,5.30
2022-08-20T04:15:00.889Z,6.17
2022-08-20T04:17:11.870Z,6.17
2022-08-20T04:19:19.199Z,5.03
2022-08-20T04:21:22.701Z,5.30
2022-08-20T04:23:30.161Z,4.63
2022-08-20T04:25:37.205Z,4.70
2022-08-20T04:27:47.349Z,6.03
2022-08-20T04:29:51.499Z,6.17
2022-08-20T04:31:57.225Z,5.00
2022-08-20T04:34:01.858Z,5.13
2022-08-20T04:36:10.619Z,5.60
2022-08-20T04:38:19.303Z,4.53
2022-08-20T04:40:41.403Z,6.03
2022-08-20T04:42:47.539Z,4.57
2022-08-20T04:44:58.457Z,5.43
2022-08-20T04:47:04.099Z,6.10
2022-08-20T04:49:08.452Z,5.27
2022-08-20T04:51:17.387Z,5.37
2022-08-20T04:53:25.908Z,4.53
2022-08-20T04:55:30.080Z,4.80
2022-08-20T04:57:34.381Z,5.30
2022-08-20T04:59:40.467Z,4.40
2022-08-20T05:01:44.105Z,4.10
2022-08-20T05:03:49.170Z,4.87
2022-08-20T05:05:53.204Z,4.33
2022-08-20T05:07:58.583Z,4.80
2022-08-20T05:10:06.925Z,4.50
2022-08-20T05:12:11.258Z,3.47
2022-08-20T05:14:15.596Z,4.30
2022-08-20T05:16:19.467Z,4.43
2022-08-20T05:18:25.540Z,4.20
2022-08-20T05:20:34.194Z,4.30
2022-08-20T05:22:39.125Z,4.07
2022-08-20T05:24:42.925Z,4.43
2022-08-20T05:26:47.170Z,4.30
2022-08-20T05:28:57.796Z,3.60
2022-08-20T05:31:07.340Z,3.43
2022-08-20T05:33:14.407Z,3.63
2022-08-20T05:35:18.633Z,3.60
2022-08-20T05:37:25.715Z,4.27
2022-08-20T05:39:33.148Z,3.30
2022-08-20T05:41:40.558Z,3.50
2022-08-20T05:43:44.768Z,3.40
2022-08-20T05:45:56.577Z,3.50
2022-08-20T05:48:03.428Z,3.27
2022-08-20T05:50:08.748Z,3.40
2022-08-20T05:52:16.295Z,3.40
2022-08-20T05:54:22.066Z,3.70
2022-08-20T05:56:27.454Z,3.40
2022-08-20T05:58:33.056Z,3.33
2022-08-20T06:00:40.550Z,3.07
2022-08-20T06:03:01.299Z,3.77
2022-08-20T06:05:05.150Z,4.20
2022-08-20T06:07:09.738Z,3.80
2022-08-20T06:09:13.918Z,3.40
2022-08-20T06:11:19.115Z,3.90
2022-08-20T06:13:22.672Z,3.17
2022-08-20T06:15:26.831Z,3.20
2022-08-20T06:17:34.867Z,3.17
2022-08-20T06:19:44.260Z,3.57
2022-08-20T06:21:50.881Z,4.20
2022-08-20T06:23:58.145Z,3.73
2022-08-20T06:26:04.058Z,3.70
2022-08-20T06:28:09.582Z,3.40
2022-08-20T06:30:15.964Z,3.87
2022-08-20T06:32:32.179Z,4.07
2022-08-20T06:34:49.770Z,3.50
2022-08-20T06:36:54.966Z,3.83
2022-08-20T06:38:58.945Z,4.43
2022-08-20T06:41:03.605Z,3.83
2022-08-20T06:43:12.855Z,3.60
2022-08-20T06:45:19.349Z,3.00
2022-08-20T06:47:23.747Z,3.37
2022-08-20T06:49:27.421Z,3.20
2022-08-20T06:51:38.880Z,2.33
2022-08-20T06:53:46.590Z,2.93
2022-08-20T06:55:52.684Z,3.00
2022-08-20T06:58:00.223Z,2.93
2022-08-20T07:00:07.208Z,2.33
2022-08-20T07:02:11.209Z,2.37
2022-08-20T07:04:16.380Z,2.70
2022-08-20T07:06:20.830Z,2.10
2022-08-20T07:08:24.565Z,2.60
2022-08-20T07:10:30.686Z,2.57
2022-08-20T07:12:37.069Z,2.27
2022-08-20T07:14:42.710Z,2.30
2022-08-20T07:16:57.961Z,2.60
2022-08-20T07:19:02.127Z,2.10
2022-08-20T07:21:07.605Z,3.10
2022-08-20T07:23:12.823Z,2.50
2022-08-20T07:25:19.588Z,2.07
2022-08-20T07:27:24.739Z,2.67
2022-08-20T07:29:48.768Z,2.27
2022-08-20T07:32:11.350Z,2.87
2022-08-20T07:34:15.717Z,2.80
2022-08-20T07:36:20.488Z,2.23
2022-08-20T07:38:25.810Z,1.60
2022-08-20T07:40:31.377Z,2.40
2022-08-20T07:42:37.037Z,1.43
2022-08-20T07:44:40.679Z,1.90
2022-08-20T07:46:45.313Z,2.00
2022-08-20T07:48:51.931Z,1.83
2022-08-20T07:50:57.142Z,1.80
2022-08-20T07:53:01.375Z,2.23
2022-08-20T07:55:07.571Z,1.50
2022-08-20T07:57:12.189Z,2.00
2022-08-20T07:59:19.429Z,1.47
2022-08-20T08:01:27.054Z,1.93
2022-08-20T08:03:40.603Z,2.40
2022-08-20T08:05:55.891Z,1.37
2022-08-20T08:08:03.653Z,1.57
2022-08-20T08:10:13.609Z,1.67
2022-08-20T08:12:18.719Z,1.20
2022-08-20T08:14:26.911Z,1.10
2022-08-20T08:16:32.693Z,0.90
2022-08-20T08:18:43.722Z,1.13
2022-08-20T08:20:47.470Z,1.40
2022-08-20T08:22:59.133Z,1.87
2022-08-20T08:25:03.214Z,1.10
2022-08-20T08:27:08.214Z,1.17
2022-08-20T08:29:12.637Z,1.37
2022-08-20T08:31:18.300Z,1.53
2022-08-20T08:33:32.706Z,1.30
2022-08-20T08:35:39.033Z,1.07
2022-08-20T08:37:46.243Z,1.37
2022-08-20T08:39:51.926Z,1.47
2022-08-20T08:42:03.189Z,0.93
2022-08-20T08:44:13.571Z,1.30
2022-08-20T08:46:22.670Z,1.27
2022-08-20T08:48:33.527Z,1.10
2022-08-20T08:50:53.969Z,1.37
2022-08-20T08:53:00.918Z,1.90
2022-08-20T08:55:09.221Z,1.53
2022-08-20T08:57:13.074Z,1.50
2022-08-20T08:59:17.424Z,1.20
2022-08-20T09:01:54.026Z,2.33
2022-08-20T09:03:52.120Z,1.50
2022-08-20T09:05:59.904Z,1.43
2022-08-20T09:08:07.295Z,1.33
2022-08-20T09:10:13.242Z,1.80
2022-08-20T09:12:20.358Z,1.30
2022-08-20T09:14:25.024Z,0.93
2022-08-20T09:16:45.637Z,1.33
2022-08-20T09:18:54.264Z,1.80
2022-08-20T09:20:58.948Z,2.20
2022-08-20T09:23:03.448Z,3.80
2022-08-20T09:25:08.744Z,1.90
2022-08-20T09:27:17.843Z,1.20
2022-08-20T09:29:21.568Z,1.33
2022-08-20T09:31:25.802Z,1.60
2022-08-20T09:33:31.605Z,0.70
2022-08-20T09:35:38.244Z,1.10
2022-08-20T09:37:42.438Z,0.70
2022-08-20T09:39:48.280Z,0.97
2022-08-20T09:41:53.371Z,0.70
2022-08-20T09:44:00.867Z,0.80
2022-08-20T09:46:04.532Z,0.97
2022-08-20T09:48:10.468Z,0.77
2022-08-20T09:50:14.526Z,0.57
2022-08-20T09:52:22.336Z,0.90
2022-08-20T09:54:30.025Z,0.77
2022-08-20T09:56:38.104Z,0.90
2022-08-20T09:58:51.006Z,0.90
2022-08-20T10:00:59.138Z,0.80
2022-08-20T10:03:03.477Z,0.80
2022-08-20T10:05:19.443Z,0.70
2022-08-20T10:07:23.151Z,0.50
2022-08-20T10:09:29.611Z,0.70
2022-08-20T10:11:34.310Z,0.60
2022-08-20T10:13:43.533Z,0.73
2022-08-20T10:15:49.534Z,0.60
2022-08-20T10:17:54.978Z,0.63
2022-08-20T10:19:58.887Z,0.80
2022-08-20T10:22:07.141Z,0.90
2022-08-20T10:24:10.881Z,0.80
2022-08-20T10:26:17.634Z,0.53
2022-08-20T10:28:21.374Z,0.40
2022-08-20T10:30:27.681Z,0.70
2022-08-20T10:32:31.809Z,0.53
2022-08-20T10:34:37.290Z,0.43
2022-08-20T10:36:43.143Z,0.60
2022-08-20T10:38:49.496Z,0.80
2022-08-20T10:40:53.240Z,0.80
2022-08-20T10:43:05.042Z,0.60
2022-08-20T10:45:13.081Z,0.57
2022-08-20T10:47:22.048Z,0.53
2022-08-20T10:49:26.099Z,0.60
2022-08-20T10:51:32.698Z,0.67
2022-08-20T10:53:37.758Z,0.67
2022-08-20T10:55:41.467Z,0.80
2022-08-20T10:57:46.214Z,0.80
2022-08-20T10:59:51.515Z,1.13
2022-08-20T11:01:56.273Z,0.83
2022-08-20T11:04:00.098Z,0.67
2022-08-20T11:06:10.707Z,0.80
2022-08-20T11:08:33.310Z,0.53
2022-08-20T11:10:39.995Z,1.10
2022-08-20T11:12:46.132Z,0.70
2022-08-20T11:14:51.370Z,0.73
2022-08-20T11:16:56.292Z,0.70
2022-08-20T11:19:00.157Z,0.60
2022-08-20T11:21:04.249Z,0.90
2022-08-20T11:23:09.958Z,1.00
2022-08-20T11:25:19.610Z,0.93
2022-08-20T11:27:27.289Z,0.77
2022-08-20T11:29:34.027Z,0.83
2022-08-20T11:31:37.574Z,0.70
2022-08-20T11:33:41.420Z,0.50
2022-08-20T11:35:49.427Z,0.60
2022-08-20T11:37:54.523Z,0.67
2022-08-20T11:40:00.928Z,0.53
2022-08-20T11:42:07.801Z,0.80
2022-08-20T11:44:20.755Z,0.47
2022-08-20T11:46:39.320Z,0.70
2022-08-20T11:48:43.296Z,0.70
2022-08-20T11:50:50.586Z,0.70
2022-08-20T11:52:54.022Z,0.70
2022-08-20T11:54:59.894Z,0.50
2022-08-20T11:57:03.517Z,0.50
2022-08-20T11:59:11.992Z,0.60
2022-08-20T12:01:17.879Z,0.50
2022-08-20T12:03:22.039Z,0.50
2022-08-20T12:05:27.564Z,0.60
2022-08-20T12:07:31.384Z,0.50
2022-08-20T12:09:34.867Z,0.50
2022-08-20T12:11:39.704Z,0.50
2022-08-20T12:13:48.157Z,0.40
2022-08-20T12:15:56.154Z,0.40
2022-08-20T12:18:00.208Z,0.53
2022-08-20T12:20:09.347Z,0.40
2022-08-20T12:22:24.333Z,0.40
2022-08-20T12:24:31.682Z,0.47
2022-08-20T12:26:40.430Z,0.50
2022-08-20T12:28:44.975Z,0.60
2022-08-20T12:30:51.502Z,0.40
2022-08-20T12:32:58.812Z,0.60
2022-08-20T12:35:02.711Z,0.50
2022-08-20T12:37:15.960Z,0.43
2022-08-20T12:39:19.857Z,0.40
2022-08-20T12:41:23.461Z,0.50
2022-08-20T12:43:29.883Z,0.50
2022-08-20T12:45:34.847Z,0.40
2022-08-20T12:47:40.396Z,0.50
2022-08-20T12:49:48.939Z,0.40
2022-08-20T12:51:52.493Z,0.57
2022-08-20T12:53:56.135Z,0.40
2022-08-20T12:55:59.983Z,0.50
2022-08-20T12:58:13.003Z,0.60
2022-08-20T13:00:23.839Z,0.50
2022-08-20T13:02:30.026Z,0.40
2022-08-20T13:04:33.927Z,0.60
2022-08-20T13:06:41.657Z,0.50
2022-08-20T13:08:47.237Z,0.50
2022-08-20T13:10:51.166Z,0.60
2022-08-20T13:12:54.915Z,0.50
2022-08-20T13:14:59.501Z,0.40
2022-08-20T13:17:04.054Z,0.50
2022-08-20T13:19:10.050Z,0.60
2022-08-20T13:21:13.842Z,0.50
2022-08-20T13:23:19.268Z,0.50
2022-08-20T13:25:25.150Z,0.50
2022-08-20T13:27:31.921Z,0.40
2022-08-20T13:29:36.256Z,0.50
2022-08-20T13:31:39.911Z,0.50
2022-08-20T13:33:43.519Z,0.50
2022-08-20T13:35:49.402Z,0.50
2022-08-20T13:37:53.353Z,0.50
2022-08-20T13:39:59.906Z,0.60
2022-08-20T13:42:03.423Z,0.40
2022-08-20T13:44:09.786Z,0.60
2022-08-20T13:46:13.351Z,0.40
2022-08-20T13:48:19.755Z,0.60
2022-08-20T13:50:26.893Z,0.50
2022-08-20T13:52:30.945Z,0.50
2022-08-20T13:54:38.339Z,0.40
2022-08-20T13:57:08.089Z,0.40
2022-08-20T13:59:14.957Z,0.47
2022-08-20T14:01:21.435Z,0.40
2022-08-20T14:03:25.504Z,0.60
2022-08-20T14:05:33.679Z,0.50
2022-08-20T14:07:38.069Z,0.40
2022-08-20T14:09:42.845Z,0.50
2022-08-20T14:11:48.314Z,0.53
2022-08-20T14:13:52.185Z,0.50
2022-08-20T14:15:56.991Z,0.57
2022-08-20T14:18:01.060Z,0.40
2022-08-20T14:20:08.688Z,0.43
2022-08-20T14:22:13.257Z,0.60
2022-08-20T14:24:16.805Z,0.40
2022-08-20T14:26:20.345Z,0.40
2022-08-20T14:28:28.545Z,0.40
2022-08-20T14:30:33.234Z,0.60
2022-08-20T14:32:39.999Z,0.60
2022-08-20T14:34:44.323Z,0.47
2022-08-20T14:36:48.038Z,0.47
2022-08-20T14:38:55.251Z,0.40
2022-08-20T14:40:59.330Z,0.50
2022-08-20T14:43:03.941Z,0.60
2022-08-20T14:45:12.741Z,0.43
2022-08-20T14:47:22.517Z,0.50
2022-08-20T14:49:26.561Z,0.80
2022-08-20T14:51:30.465Z,0.50
2022-08-20T14:53:39.818Z,0.50
2022-08-20T14:55:44.216Z,0.33
2022-08-20T14:57:53.221Z,0.50
2022-08-20T14:59:56.838Z,0.60
2022-08-20T15:02:02.023Z,0.60
2022-08-20T15:04:07.957Z,0.50
2022-08-20T15:06:21.202Z,0.50
2022-08-20T15:08:28.921Z,0.47
2022-08-20T15:10:34.478Z,0.50
2022-08-20T15:12:38.472Z,0.60
2022-08-20T15:14:47.979Z,0.50
2022-08-20T15:16:52.438Z,0.40
2022-08-20T15:19:03.011Z,0.50
2022-08-20T15:21:10.302Z,0.40
2022-08-20T15:23:14.247Z,0.60
2022-08-20T15:25:20.986Z,0.50
2022-08-20T15:27:30.147Z,0.60
2022-08-20T15:29:34.135Z,0.50
2022-08-20T15:31:50.683Z,0.50
2022-08-20T15:33:54.075Z,0.60
2022-08-20T15:36:03.342Z,0.47
2022-08-20T15:38:09.240Z,0.60
2022-08-20T15:40:16.170Z,0.60
2022-08-20T15:42:24.207Z,0.50
2022-08-20T15:44:30.118Z,0.70
2022-08-20T15:46:37.549Z,0.50
2022-08-20T15:48:45.608Z,0.50
2022-08-20T15:51:13.134Z,0.70
2022-08-20T15:53:24.212Z,0.70
2022-08-20T15:55:28.708Z,0.90
2022-08-20T15:57:58.784Z,0.60
2022-08-20T16:00:11.914Z,1.07
2022-08-20T16:02:26.165Z,0.70
2022-08-20T16:04:50.067Z,0.60
2022-08-20T16:07:03.010Z,0.67
2022-08-20T16:09:25.114Z,0.50
2022-08-20T16:11:49.700Z,0.70
2022-08-20T16:13:57.440Z,0.80
2022-08-20T16:16:04.194Z,0.67
2022-08-20T16:18:11.718Z,0.40
2022-08-20T16:20:22.372Z,0.60
2022-08-20T16:22:31.462Z,0.90
2022-08-20T16:24:35.337Z,0.63
2022-08-20T16:26:59.677Z,0.80
2022-08-20T16:29:11.601Z,0.70
2022-08-20T16:31:20.292Z,0.60
2022-08-20T16:33:32.753Z,0.60
2022-08-20T16:35:44.970Z,0.80
2022-08-20T16:38:02.153Z,0.53
2022-08-20T16:40:23.950Z,0.67
2022-08-20T16:42:34.349Z,0.70
2022-08-20T16:44:44.096Z,0.57
2022-08-20T16:46:53.326Z,0.50
2022-08-20T16:48:59.954Z,0.50
2022-08-20T16:51:08.736Z,0.70
2022-08-20T16:53:21.713Z,0.60
2022-08-20T16:55:26.114Z,0.50
2022-08-20T16:57:33.493Z,0.60
2022-08-20T16:59:57.018Z,0.70
2022-08-20T17:02:10.380Z,0.60
2022-08-20T17:04:22.684Z,0.50
2022-08-20T17:06:28.409Z,0.70
2022-08-20T17:08:55.126Z,0.50
2022-08-20T17:11:05.579Z,0.50
2022-08-20T17:13:24.166Z,0.50
2022-08-20T17:15:54.571Z,0.60
2022-08-20T17:18:18.411Z,0.50
2022-08-20T17:20:22.253Z,0.50
2022-08-20T17:22:30.387Z,0.60
2022-08-20T17:24:35.302Z,0.60
2022-08-20T17:26:44.149Z,0.50
2022-08-20T17:28:51.166Z,0.57
2022-08-20T17:30:55.299Z,0.67
2022-08-20T17:33:01.747Z,0.67
2022-08-20T17:35:08.670Z,0.60
2022-08-20T17:37:21.792Z,0.50
2022-08-20T17:39:31.613Z,0.60
2022-08-20T17:41:39.043Z,0.60
2022-08-20T17:43:43.359Z,0.50
2022-08-20T17:45:49.998Z,0.50
2022-08-20T17:47:55.337Z,0.70
2022-08-20T17:50:04.576Z,0.77
2022-08-20T17:52:18.651Z,0.80
2022-08-20T17:54:28.700Z,0.70
2022-08-20T17:56:39.339Z,0.70
2022-08-20T17:58:54.462Z,0.60
2022-08-20T18:01:02.021Z,0.60
2022-08-20T18:03:17.988Z,0.90
2022-08-20T18:05:23.079Z,0.80
2022-08-20T18:07:28.850Z,0.70
2022-08-20T18:09:38.467Z,0.70
2022-08-20T18:11:50.838Z,1.00
2022-08-20T18:14:16.211Z,1.00
2022-08-20T18:16:34.729Z,0.80
2022-08-20T18:18:57.114Z,1.80
2022-08-20T18:21:30.087Z,1.70
2022-08-20T18:23:41.311Z,1.60
2022-08-20T18:25:51.877Z,1.37
2022-08-20T18:28:00.748Z,1.53
2022-08-20T18:30:14.578Z,1.30
2022-08-20T18:32:30.563Z,1.20
2022-08-20T18:34:40.300Z,1.30
2022-08-20T18:36:54.309Z,1.27
2022-08-20T18:39:05.408Z,1.27
2022-08-20T18:41:17.714Z,1.57
2022-08-20T18:43:32.634Z,1.13
2022-08-20T18:45:39.615Z,1.00
2022-08-20T18:47:46.601Z,0.60
2022-08-20T18:50:02.766Z,1.30
2022-08-20T18:52:13.028Z,0.80
2022-08-20T18:54:25.108Z,0.87
2022-08-20T18:56:37.610Z,0.70
2022-08-20T18:58:56.130Z,0.50
2022-08-20T19:01:05.247Z,0.50
2022-08-20T19:03:18.997Z,0.60
2022-08-20T19:05:28.838Z,0.67
2022-08-20T19:07:45.827Z,0.63
2022-08-20T19:10:27.543Z,0.70
2022-08-20T19:12:54.894Z,0.60
2022-08-20T19:15:14.188Z,0.60
2022-08-20T19:17:27.180Z,0.77
2022-08-20T19:19:35.756Z,0.60
2022-08-20T19:21:42.698Z,0.83
2022-08-20T19:23:52.269Z,0.60
2022-08-20T19:26:00.591Z,0.90
2022-08-20T19:28:17.961Z,0.70
2022-08-20T19:30:36.944Z,1.10
2022-08-20T19:32:47.260Z,0.77
2022-08-20T19:34:55.282Z,0.60
2022-08-20T19:37:08.971Z,0.77
2022-08-20T19:39:28.511Z,0.80
2022-08-20T19:41:41.140Z,0.70
2022-08-20T19:43:46.239Z,0.50
2022-08-20T19:46:02.767Z,0.60
2022-08-20T19:48:27.500Z,0.83
2022-08-20T19:50:40.516Z,0.70
2022-08-20T19:52:52.068Z,0.40
2022-08-20T19:55:03.363Z,0.60
2022-08-20T19:57:10.667Z,0.50
2022-08-20T19:59:20.981Z,0.57
2022-08-20T20:01:26.077Z,0.50
2022-08-20T20:03:32.703Z,0.50
2022-08-20T20:05:36.519Z,0.40
2022-08-20T20:07:45.825Z,0.77
2022-08-20T20:09:52.037Z,0.50
2022-08-20T20:11:58.742Z,0.50
2022-08-20T20:14:05.841Z,0.50
2022-08-20T20:16:12.844Z,0.57
2022-08-20T20:18:22.560Z,0.60
2022-08-20T20:20:30.653Z,0.50
2022-08-20T20:22:36.026Z,0.50
2022-08-20T20:24:45.028Z,0.50
2022-08-20T20:26:50.675Z,0.60
2022-08-20T20:29:02.170Z,0.57
2022-08-20T20:31:10.578Z,0.60
2022-08-20T20:33:18.699Z,0.50
2022-08-20T20:35:29.999Z,0.50
2022-08-20T20:37:50.583Z,0.50
2022-08-20T20:40:04.238Z,0.50
2022-08-20T20:42:14.246Z,0.50
2022-08-20T20:44:22.100Z,0.53
2022-08-20T20:46:29.779Z,0.50
2022-08-20T20:48:46.193Z,0.47
2022-08-20T20:50:51.992Z,0.50
2022-08-20T20:53:00.617Z,0.43
2022-08-20T20:55:12.443Z,0.67
2022-08-20T20:57:38.638Z,0.50
2022-08-20T20:59:43.163Z,0.40
2022-08-20T21:01:50.541Z,0.40
2022-08-20T21:03:55.974Z,0.70
2022-08-20T21:06:01.254Z,0.50
2022-08-20T21:08:08.261Z,0.60
2022-08-20T21:10:12.562Z,0.53
2022-08-20T21:12:15.982Z,0.50
2022-08-20T21:14:20.560Z,0.60
2022-08-20T21:16:24.561Z,0.60
2022-08-20T21:18:35.625Z,0.70
2022-08-20T21:20:41.126Z,0.47
2022-08-20T21:22:45.759Z,0.50
2022-08-20T21:24:51.876Z,0.50
2022-08-20T21:26:55.746Z,0.60
2022-08-20T21:29:02.330Z,0.60
2022-08-20T21:31:06.490Z,0.50
2022-08-20T21:33:11.621Z,0.50
2022-08-20T21:35:16.453Z,0.50
2022-08-20T21:37:21.934Z,0.60
2022-08-20T21:39:26.099Z,0.60
2022-08-20T21:41:32.875Z,0.50
2022-08-20T21:43:40.370Z,0.50
2022-08-20T21:45:51.448Z,0.47
2022-08-20T21:47:57.687Z,0.60
2022-08-20T21:50:01.872Z,0.50
2022-08-20T21:52:06.202Z,0.63
2022-08-20T21:54:11.349Z,0.67
2022-08-20T21:56:15.027Z,0.50
2022-08-20T21:58:19.265Z,0.60
2022-08-20T22:00:49.892Z,0.63
2022-08-20T22:02:53.452Z,0.70
2022-08-20T22:05:00.015Z,0.93
2022-08-20T22:07:03.990Z,0.60
2022-08-20T22:09:08.869Z,0.60
2022-08-20T22:11:15.264Z,0.80
2022-08-20T22:13:19.142Z,0.50
2022-08-20T22:15:23.158Z,1.00
2022-08-20T22:17:27.834Z,0.93
2022-08-20T22:19:31.509Z,1.30
2022-08-20T22:21:37.071Z,0.70
2022-08-20T22:23:42.046Z,0.90
2022-08-20T22:25:46.094Z,0.80
2022-08-20T22:27:52.062Z,0.87
2022-08-20T22:29:56.106Z,0.67
2022-08-20T22:32:02.633Z,1.03
2022-08-20T22:34:07.824Z,0.90
2022-08-20T22:36:13.999Z,0.70
2022-08-20T22:38:20.873Z,0.80
2022-08-20T22:40:24.681Z,0.90
2022-08-20T22:42:28.893Z,0.83
2022-08-20T22:44:34.537Z,0.80
2022-08-20T22:46:47.354Z,1.10
2022-08-20T22:48:52.474Z,0.90
2022-08-20T22:50:56.278Z,0.70
2022-08-20T22:53:03.006Z,0.90
2022-08-20T22:55:10.963Z,0.97
2022-08-20T22:57:15.740Z,1.17
2022-08-20T22:59:24.539Z,1.00
2022-08-20T23:01:33.486Z,0.70
2022-08-20T23:03:40.454Z,0.77
2022-08-20T23:05:46.396Z,0.90
2022-08-20T23:07:54.407Z,1.03
2022-08-20T23:10:01.116Z,1.00
2022-08-20T23:12:05.277Z,1.70
2022-08-20T23:14:12.522Z,0.90
2022-08-20T23:16:16.493Z,1.13
2022-08-20T23:18:22.326Z,1.30
2022-08-20T23:20:25.950Z,1.20
2022-08-20T23:22:32.518Z,1.10
2022-08-20T23:24:36.633Z,1.27
2022-08-20T23:26:44.738Z,1.10
2022-08-20T23:28:57.459Z,1.20
2022-08-20T23:31:02.043Z,0.90
2022-08-20T23:33:05.773Z,1.30
2022-08-20T23:35:11.847Z,1.40
2022-08-20T23:37:18.987Z,1.00
2022-08-20T23:39:23.097Z,1.63
2022-08-20T23:41:26.695Z,1.70
2022-08-20T23:43:30.796Z,1.43
2022-08-20T23:45:35.220Z,2.10
2022-08-20T23:47:44.044Z,2.77
2022-08-20T23:49:47.953Z,3.33
2022-08-20T23:51:53.060Z,2.10
2022-08-20T23:53:56.918Z,1.67
2022-08-20T23:56:03.664Z,1.33
2022-08-20T23:58:10.298Z,1.63
